createdAt,value
2019-06-02T00:00:59.768Z,6.50
2019-06-02T00:03:28.463Z,7.00
2019-06-02T00:05:57.141Z,6.00
2019-06-02T00:08:26.263Z,5.83
2019-06-02T00:10:55.378Z,6.13
2019-06-02T00:13:24.647Z,5.73
2019-06-02T00:15:53.441Z,5.80
2019-06-02T00:18:22.119Z,6.20
2019-06-02T00:20:50.807Z,6.50
2019-06-02T00:23:19.477Z,6.03
2019-06-02T00:25:48.371Z,7.00
2019-06-02T00:28:17.203Z,6.27
2019-06-02T00:30:46.036Z,6.63
2019-06-02T00:33:15.148Z,6.90
2019-06-02T00:35:43.789Z,5.70
2019-06-02T00:38:12.804Z,6.50
2019-06-02T00:40:41.498Z,5.70
2019-06-02T00:43:10.200Z,6.40
2019-06-02T00:45:38.884Z,6.83
2019-06-02T00:48:07.641Z,6.37
2019-06-02T00:50:37.732Z,6.70
2019-06-02T00:53:06.630Z,6.30
2019-06-02T00:55:35.866Z,6.10
2019-06-02T00:58:04.689Z,6.30
2019-06-02T01:00:34.259Z,6.90
2019-06-02T01:03:03.276Z,6.93
2019-06-02T01:05:32.991Z,5.80
2019-06-02T01:08:02.329Z,6.73
2019-06-02T01:10:32.311Z,6.30
2019-06-02T01:13:01.167Z,6.40
2019-06-02T01:15:30.519Z,5.73
2019-06-02T01:17:59.274Z,6.40
2019-06-02T01:20:28.976Z,6.77
2019-06-02T01:22:57.879Z,6.93
2019-06-02T01:25:26.572Z,6.30
2019-06-02T01:27:55.312Z,6.20
2019-06-02T01:30:24.303Z,7.30
2019-06-02T01:32:53.004Z,7.00
2019-06-02T01:35:21.794Z,6.03
2019-06-02T01:37:50.993Z,7.93
2019-06-02T01:40:19.657Z,5.90
2019-06-02T01:42:48.351Z,5.80
2019-06-02T01:45:26.893Z,6.20
2019-06-02T01:47:47.470Z,5.47
2019-06-02T01:50:16.167Z,6.27
2019-06-02T01:52:44.998Z,5.73
2019-06-02T01:55:13.907Z,6.40
2019-06-02T01:57:42.581Z,5.83
2019-06-02T02:00:12.163Z,6.67
2019-06-02T02:02:42.218Z,6.63
2019-06-02T02:05:12.158Z,6.97
2019-06-02T02:07:43.980Z,7.10
2019-06-02T02:10:13.608Z,5.70
2019-06-02T02:12:42.433Z,6.33
2019-06-02T02:15:12.033Z,6.17
2019-06-02T02:17:42.528Z,6.60
2019-06-02T02:20:11.446Z,7.20
2019-06-02T02:22:40.668Z,6.50
2019-06-02T02:25:10.455Z,6.50
2019-06-02T02:27:39.544Z,7.00
2019-06-02T02:30:11.492Z,7.53
2019-06-02T02:32:42.557Z,6.43
2019-06-02T02:35:11.124Z,6.80
2019-06-02T02:37:42.275Z,5.23
2019-06-02T02:40:10.905Z,5.73
2019-06-02T02:42:41.326Z,6.50
2019-06-02T02:45:10.780Z,7.10
2019-06-02T02:47:40.925Z,5.87
2019-06-02T02:50:32.639Z,6.57
2019-06-02T02:53:01.863Z,6.03
2019-06-02T02:55:30.657Z,5.80
2019-06-02T02:57:59.333Z,6.17
2019-06-02T03:00:41.925Z,5.70
2019-06-02T03:03:10.195Z,5.80
2019-06-02T03:05:40.533Z,4.67
2019-06-02T03:08:09.373Z,5.70
2019-06-02T03:10:39.280Z,5.50
2019-06-02T03:13:08.463Z,5.17
2019-06-02T03:15:38.607Z,5.80
2019-06-02T03:18:07.661Z,6.50
2019-06-02T03:20:38.044Z,5.67
2019-06-02T03:23:06.828Z,5.70
2019-06-02T03:25:36.332Z,5.50
2019-06-02T03:28:05.243Z,5.60
2019-06-02T03:30:33.940Z,5.33
2019-06-02T03:33:02.714Z,5.50
2019-06-02T03:35:31.428Z,5.30
2019-06-02T03:38:00.116Z,5.10
2019-06-02T03:40:28.876Z,5.50
2019-06-02T03:42:57.552Z,4.97
2019-06-02T03:45:26.323Z,5.73
2019-06-02T03:47:55.007Z,4.67
2019-06-02T03:50:23.706Z,5.87
2019-06-02T03:52:52.652Z,6.50
2019-06-02T03:55:21.347Z,5.00
2019-06-02T03:57:50.034Z,5.30
2019-06-02T04:00:18.718Z,5.73
2019-06-02T04:02:50.361Z,4.80
2019-06-02T04:05:17.830Z,5.70
2019-06-02T04:07:49.823Z,4.60
2019-06-02T04:10:16.909Z,5.13
2019-06-02T04:12:46.882Z,5.67
2019-06-02T04:15:16.497Z,4.87
2019-06-02T04:17:46.488Z,5.50
2019-06-02T04:20:16.594Z,5.80
2019-06-02T04:22:47.341Z,4.93
2019-06-02T04:25:15.770Z,5.50
2019-06-02T04:27:45.139Z,4.80
2019-06-02T04:30:15.363Z,5.67
2019-06-02T04:32:44.893Z,4.90
2019-06-02T04:35:14.531Z,5.73
2019-06-02T04:37:43.878Z,5.40
2019-06-02T04:40:13.784Z,5.47
2019-06-02T04:42:43.729Z,5.60
2019-06-02T04:45:13.604Z,5.70
2019-06-02T04:47:44.067Z,5.87
2019-06-02T04:50:13.382Z,5.13
2019-06-02T04:52:43.602Z,4.80
2019-06-02T04:55:12.498Z,5.47
2019-06-02T04:57:42.190Z,5.63
2019-06-02T05:00:11.216Z,5.87
2019-06-02T05:02:39.882Z,5.40
2019-06-02T05:05:08.703Z,4.67
2019-06-02T05:07:38.843Z,4.70
2019-06-02T05:10:07.566Z,4.30
2019-06-02T05:12:36.523Z,4.53
2019-06-02T05:15:06.879Z,4.70
2019-06-02T05:17:52.804Z,4.67
2019-06-02T05:20:06.584Z,4.87
2019-06-02T05:22:35.280Z,3.80
2019-06-02T05:25:06.045Z,5.10
2019-06-02T05:27:34.949Z,5.20
2019-06-02T05:30:04.638Z,4.53
2019-06-02T05:32:33.326Z,4.87
2019-06-02T05:35:02.173Z,4.73
2019-06-02T05:37:31.083Z,4.00
2019-06-02T05:39:59.818Z,4.23
2019-06-02T05:42:28.578Z,4.03
2019-06-02T05:44:57.224Z,4.53
2019-06-02T05:47:25.896Z,4.70
2019-06-02T05:49:54.686Z,3.97
2019-06-02T05:52:23.359Z,4.13
2019-06-02T05:54:52.855Z,3.70
2019-06-02T05:57:21.650Z,3.80
2019-06-02T05:59:51.308Z,3.67
2019-06-02T06:02:20.155Z,4.00
2019-06-02T06:04:50.309Z,3.70
2019-06-02T06:07:19.433Z,4.47
2019-06-02T06:09:48.657Z,4.03
2019-06-02T06:12:17.359Z,3.33
2019-06-02T06:14:46.040Z,4.00
2019-06-02T06:17:14.895Z,3.60
2019-06-02T06:19:43.603Z,2.80
2019-06-02T06:22:12.267Z,3.57
2019-06-02T06:24:40.974Z,3.00
2019-06-02T06:27:09.634Z,7.90
2019-06-02T06:29:50.841Z,2.83
2019-06-02T06:32:19.683Z,2.63
2019-06-02T06:34:48.472Z,2.90
2019-06-02T06:37:17.158Z,2.93
2019-06-02T06:39:45.947Z,3.03
2019-06-02T06:42:14.621Z,3.43
2019-06-02T06:44:43.318Z,3.97
2019-06-02T06:47:11.987Z,2.90
2019-06-02T06:49:40.691Z,3.47
2019-06-02T06:52:09.360Z,3.40
2019-06-02T06:54:40.578Z,2.83
2019-06-02T06:57:09.477Z,3.70
2019-06-02T06:59:38.265Z,2.50
2019-06-02T07:02:07.052Z,3.40
2019-06-02T07:04:35.765Z,3.33
2019-06-02T07:07:05.448Z,2.60
2019-06-02T07:09:34.337Z,2.67
2019-06-02T07:12:03.313Z,3.03
2019-06-02T07:14:32.707Z,2.60
2019-06-02T07:17:01.785Z,3.17
2019-06-02T07:19:30.648Z,2.57
2019-06-02T07:22:00.302Z,2.40
2019-06-02T07:24:29.194Z,2.47
2019-06-02T07:26:58.771Z,2.27
2019-06-02T07:29:27.764Z,2.03
2019-06-02T07:31:57.430Z,2.53
2019-06-02T07:34:26.367Z,1.80
2019-06-02T07:36:55.123Z,2.20
2019-06-02T07:39:24.127Z,2.10
2019-06-02T07:41:52.908Z,4.60
2019-06-02T07:44:21.603Z,2.33
2019-06-02T07:46:50.539Z,1.83
2019-06-02T07:49:29.500Z,1.73
2019-06-02T07:51:49.645Z,2.40
2019-06-02T07:54:18.357Z,2.33
2019-06-02T07:56:47.056Z,2.40
2019-06-02T07:59:15.860Z,2.23
2019-06-02T08:01:44.590Z,2.30
2019-06-02T08:04:13.261Z,1.90
2019-06-02T08:06:41.973Z,2.03
2019-06-02T08:09:10.780Z,2.27
2019-06-02T08:11:39.810Z,3.47
2019-06-02T08:14:08.738Z,1.97
2019-06-02T08:16:37.453Z,1.97
2019-06-02T08:19:06.696Z,2.10
2019-06-02T08:21:35.742Z,1.80
2019-06-02T08:24:04.826Z,1.90
2019-06-02T08:26:33.652Z,2.23
2019-06-02T08:29:02.881Z,1.80
2019-06-02T08:31:31.723Z,2.10
2019-06-02T08:34:00.952Z,2.10
2019-06-02T08:36:29.837Z,2.23
2019-06-02T08:38:59.062Z,1.77
2019-06-02T08:41:27.861Z,1.83
2019-06-02T08:43:56.558Z,1.53
2019-06-02T08:46:25.354Z,2.30
2019-06-02T08:48:54.351Z,2.37
2019-06-02T08:51:23.012Z,1.90
2019-06-02T08:53:52.028Z,1.90
2019-06-02T08:56:20.766Z,1.80
2019-06-02T08:58:49.451Z,1.80
2019-06-02T09:01:18.325Z,1.60
2019-06-02T09:03:47.025Z,1.53
2019-06-02T09:06:15.841Z,2.33
2019-06-02T09:08:44.587Z,1.47
2019-06-02T09:11:13.288Z,1.57
2019-06-02T09:13:42.042Z,1.50
2019-06-02T09:16:11.155Z,1.23
2019-06-02T09:18:40.019Z,1.30
2019-06-02T09:21:10.130Z,1.40
2019-06-02T09:23:38.940Z,2.13
2019-06-02T09:26:09.240Z,1.57
2019-06-02T09:28:38.108Z,1.73
2019-06-02T09:31:06.848Z,1.57
2019-06-02T09:33:35.776Z,1.70
2019-06-02T09:36:04.937Z,1.40
2019-06-02T09:38:33.847Z,1.90
2019-06-02T09:41:02.591Z,1.57
2019-06-02T09:43:31.258Z,1.50
2019-06-02T09:45:59.943Z,1.37
2019-06-02T09:48:28.642Z,1.30
2019-06-02T09:50:57.361Z,1.10
2019-06-02T09:53:26.164Z,1.50
2019-06-02T09:55:55.352Z,1.83
2019-06-02T09:58:24.064Z,1.37
2019-06-02T10:00:52.772Z,1.70
2019-06-02T10:03:34.331Z,1.70
2019-06-02T10:05:51.881Z,1.70
2019-06-02T10:08:20.619Z,1.80
2019-06-02T10:10:49.898Z,1.63
2019-06-02T10:13:21.440Z,1.80
2019-06-02T10:15:49.771Z,1.50
2019-06-02T10:18:18.532Z,1.40
2019-06-02T10:21:03.181Z,1.40
2019-06-02T10:23:19.084Z,1.53
2019-06-02T10:25:47.859Z,1.27
2019-06-02T10:28:16.927Z,1.57
2019-06-02T10:30:45.890Z,2.07
2019-06-02T10:33:14.600Z,1.50
2019-06-02T10:35:43.476Z,1.57
2019-06-02T10:38:13.155Z,1.20
2019-06-02T10:40:41.952Z,1.47
2019-06-02T10:43:10.961Z,1.30
2019-06-02T10:45:39.804Z,2.20
2019-06-02T10:48:09.481Z,1.40
2019-06-02T10:50:38.340Z,1.50
2019-06-02T10:53:07.596Z,1.47
2019-06-02T10:55:36.635Z,0.93
2019-06-02T10:58:05.365Z,3.57
2019-06-02T11:00:34.602Z,2.30
2019-06-02T11:03:03.272Z,1.30
2019-06-02T11:05:32.052Z,1.20
2019-06-02T11:08:00.928Z,1.57
2019-06-02T11:10:29.909Z,1.33
2019-06-02T11:12:58.778Z,1.57
2019-06-02T11:15:27.467Z,1.50
2019-06-02T11:17:56.186Z,1.20
2019-06-02T11:20:28.334Z,1.10
2019-06-02T11:22:55.262Z,0.90
2019-06-02T11:25:23.947Z,1.40
2019-06-02T11:27:52.716Z,0.90
2019-06-02T11:30:26.325Z,1.30
2019-06-02T11:32:55.013Z,1.00
2019-06-02T11:35:43.004Z,1.40
2019-06-02T11:38:12.499Z,1.03
2019-06-02T11:40:43.322Z,1.00
2019-06-02T11:43:12.478Z,1.30
2019-06-02T11:45:42.782Z,1.30
2019-06-02T11:48:12.435Z,1.00
2019-06-02T11:50:41.880Z,1.17
2019-06-02T11:53:10.588Z,2.30
2019-06-02T11:55:40.179Z,1.03
2019-06-02T11:58:09.151Z,1.10
2019-06-02T12:00:38.062Z,1.40
2019-06-02T12:03:06.750Z,1.00
2019-06-02T12:05:35.534Z,1.37
2019-06-02T12:08:08.644Z,1.40
2019-06-02T12:10:34.886Z,1.57
2019-06-02T12:13:03.627Z,1.03
2019-06-02T12:15:32.659Z,1.30
2019-06-02T12:18:01.406Z,1.30
2019-06-02T12:20:30.592Z,1.70
2019-06-02T12:22:59.639Z,1.30
2019-06-02T12:25:28.385Z,1.50
2019-06-02T12:28:03.054Z,1.37
2019-06-02T12:30:31.780Z,1.20
2019-06-02T12:33:00.673Z,1.30
2019-06-02T12:35:32.606Z,1.20
2019-06-02T12:37:59.759Z,1.00
2019-06-02T12:40:28.602Z,1.03
2019-06-02T12:42:57.340Z,1.80
2019-06-02T12:45:27.043Z,1.30
2019-06-02T12:47:55.905Z,1.53
2019-06-02T12:50:25.249Z,1.67
2019-06-02T12:52:54.174Z,1.50
2019-06-02T12:55:23.338Z,1.40
2019-06-02T12:57:52.118Z,1.33
2019-06-02T13:00:25.673Z,2.53
2019-06-02T13:02:52.091Z,1.30
2019-06-02T13:05:21.653Z,1.67
2019-06-02T13:07:50.869Z,1.13
2019-06-02T13:10:20.467Z,1.27
2019-06-02T13:12:49.426Z,2.20
2019-06-02T13:15:18.237Z,1.70
2019-06-02T13:17:47.212Z,1.40
2019-06-02T13:20:16.421Z,1.73
2019-06-02T13:22:50.296Z,1.13
2019-06-02T13:25:15.515Z,1.30
2019-06-02T13:27:44.233Z,5.30
2019-06-02T13:30:13.389Z,1.40
2019-06-02T13:32:42.119Z,1.40
2019-06-02T13:35:11.380Z,1.37
2019-06-02T13:37:40.087Z,1.27
2019-06-02T13:40:09.187Z,1.20
2019-06-02T13:42:37.978Z,2.90
2019-06-02T13:45:10.037Z,1.37
2019-06-02T13:47:38.823Z,1.10
2019-06-02T13:50:08.239Z,1.40
2019-06-02T13:52:37.069Z,1.90
2019-06-02T13:55:07.563Z,1.57
2019-06-02T13:57:36.243Z,1.77
2019-06-02T14:00:09.870Z,1.30
2019-06-02T14:02:38.560Z,1.50
2019-06-02T14:05:07.795Z,1.30
2019-06-02T14:07:37.571Z,1.33
2019-06-02T14:10:08.846Z,1.43
2019-06-02T14:12:37.569Z,1.53
2019-06-02T14:15:09.421Z,1.40
2019-06-02T14:17:38.453Z,1.77
2019-06-02T14:20:08.405Z,2.73
2019-06-02T14:22:37.101Z,1.20
2019-06-02T14:25:06.828Z,1.37
2019-06-02T14:27:35.551Z,2.10
2019-06-02T14:30:08.531Z,2.30
2019-06-02T14:32:37.246Z,1.53
2019-06-02T14:35:06.555Z,1.70
2019-06-02T14:37:35.375Z,1.60
2019-06-02T14:40:08.646Z,1.50
2019-06-02T14:42:37.368Z,1.57
2019-06-02T14:45:07.427Z,1.97
2019-06-02T14:47:36.144Z,1.07
2019-06-02T14:50:08.797Z,1.63
2019-06-02T14:52:37.507Z,1.70
2019-06-02T14:55:06.374Z,1.40
2019-06-02T14:57:36.587Z,1.63
2019-06-02T15:00:07.562Z,1.20
2019-06-02T15:02:36.793Z,1.20
2019-06-02T15:05:12.729Z,1.43
2019-06-02T15:07:41.439Z,1.63
2019-06-02T15:10:10.645Z,1.53
2019-06-02T15:12:39.341Z,1.40
2019-06-02T15:15:08.433Z,1.50
2019-06-02T15:17:37.129Z,2.20
2019-06-02T15:20:11.433Z,1.80
2019-06-02T15:22:46.683Z,1.63
2019-06-02T15:25:08.737Z,1.40
2019-06-02T15:27:37.429Z,1.47
2019-06-02T15:30:07.695Z,1.57
2019-06-02T15:32:36.671Z,1.60
2019-06-02T15:35:08.832Z,1.87
2019-06-02T15:37:37.546Z,1.43
2019-06-02T15:40:07.307Z,1.50
2019-06-02T15:42:36.011Z,2.70
2019-06-02T15:45:07.401Z,1.40
2019-06-02T15:47:36.330Z,1.07
2019-06-02T15:50:09.113Z,1.37
2019-06-02T15:52:37.858Z,1.33
2019-06-02T15:55:07.086Z,1.20
2019-06-02T15:57:37.151Z,1.60
2019-06-02T16:00:09.060Z,1.43
2019-06-02T16:02:37.765Z,1.60
2019-06-02T16:05:06.641Z,1.30
2019-06-02T16:07:35.966Z,1.70
2019-06-02T16:10:07.563Z,1.40
2019-06-02T16:12:36.562Z,1.60
2019-06-02T16:15:06.722Z,1.30
2019-06-02T16:17:35.463Z,1.80
2019-06-02T16:20:06.445Z,1.07
2019-06-02T16:22:35.441Z,1.47
2019-06-02T16:25:06.053Z,1.70
2019-06-02T16:27:36.005Z,1.70
2019-06-02T16:30:06.531Z,1.60
2019-06-02T16:32:36.274Z,1.20
2019-06-02T16:35:06.736Z,1.23
2019-06-02T16:37:35.917Z,1.20
2019-06-02T16:40:06.348Z,1.30
2019-06-02T16:42:36.127Z,1.37
2019-06-02T16:45:10.836Z,1.33
2019-06-02T16:47:41.028Z,1.73
2019-06-02T16:50:11.023Z,1.20
2019-06-02T16:52:40.227Z,1.73
2019-06-02T16:55:09.867Z,0.93
2019-06-02T16:57:39.732Z,1.73
2019-06-02T17:00:09.739Z,1.20
2019-06-02T17:02:39.218Z,1.00
2019-06-02T17:05:09.425Z,1.27
2019-06-02T17:07:38.121Z,1.13
2019-06-02T17:10:07.600Z,1.00
2019-06-02T17:12:36.348Z,1.60
2019-06-02T17:15:06.652Z,1.37
2019-06-02T17:17:48.045Z,1.27
2019-06-02T17:20:07.264Z,1.30
2019-06-02T17:22:37.103Z,1.00
2019-06-02T17:25:13.089Z,1.10
2019-06-02T17:27:43.518Z,1.10
2019-06-02T17:30:09.419Z,1.00
2019-06-02T17:32:38.229Z,1.30
2019-06-02T17:35:07.295Z,1.23
2019-06-02T17:37:36.530Z,1.40
2019-06-02T17:40:09.257Z,1.10
2019-06-02T17:42:39.096Z,1.00
2019-06-02T17:45:09.024Z,1.50
2019-06-02T17:47:37.772Z,1.37
2019-06-02T17:50:10.298Z,1.20
2019-06-02T17:52:40.043Z,1.40
2019-06-02T17:55:09.115Z,1.47
2019-06-02T17:57:37.863Z,1.40
2019-06-02T18:00:10.473Z,3.47
2019-06-02T18:02:39.202Z,1.17
2019-06-02T18:05:08.633Z,1.30
2019-06-02T18:07:37.320Z,1.17
2019-06-02T18:10:10.716Z,0.80
2019-06-02T18:12:39.403Z,1.60
2019-06-02T18:15:10.091Z,1.17
2019-06-02T18:17:38.823Z,1.30
2019-06-02T18:20:08.323Z,1.63
2019-06-02T18:22:37.005Z,1.00
2019-06-02T18:25:08.004Z,1.00
2019-06-02T18:27:36.763Z,1.30
2019-06-02T18:30:08.988Z,1.30
2019-06-02T18:32:37.658Z,1.10
2019-06-02T18:35:07.029Z,1.10
2019-06-02T18:37:35.695Z,1.30
2019-06-02T18:40:06.333Z,1.00
2019-06-02T18:42:35.220Z,1.13
2019-06-02T18:45:05.006Z,1.10
2019-06-02T18:47:33.729Z,1.20
2019-06-02T18:50:02.520Z,1.40
2019-06-02T18:52:31.576Z,1.40
2019-06-02T18:55:00.428Z,1.10
2019-06-02T18:57:29.272Z,1.13
2019-06-02T18:59:58.041Z,1.20
2019-06-02T19:02:26.846Z,1.40
2019-06-02T19:04:56.253Z,1.20
2019-06-02T19:07:25.194Z,1.37
2019-06-02T19:09:54.369Z,1.13
2019-06-02T19:12:23.182Z,1.20
2019-06-02T19:14:52.679Z,1.40
2019-06-02T19:17:21.502Z,1.23
2019-06-02T19:19:51.134Z,1.40
2019-06-02T19:22:23.130Z,1.10
2019-06-02T19:24:51.606Z,1.40
2019-06-02T19:27:20.421Z,1.30
2019-06-02T19:29:50.314Z,1.67
2019-06-02T19:32:19.134Z,1.10
2019-06-02T19:34:48.534Z,1.30
2019-06-02T19:37:17.514Z,2.23
2019-06-02T19:39:46.376Z,1.70
2019-06-02T19:42:15.208Z,1.40
2019-06-02T19:44:43.912Z,1.27
2019-06-02T19:47:12.802Z,1.80
2019-06-02T19:49:41.499Z,1.53
2019-06-02T19:52:10.189Z,1.37
2019-06-02T19:54:38.857Z,1.23
2019-06-02T19:57:07.555Z,1.30
2019-06-02T19:59:36.294Z,1.50
2019-06-02T20:02:05.286Z,1.47
2019-06-02T20:04:34.010Z,1.30
2019-06-02T20:07:02.987Z,1.10
2019-06-02T20:09:32.016Z,1.87
2019-06-02T20:12:00.713Z,1.47
2019-06-02T20:14:29.440Z,1.40
2019-06-02T20:16:59.407Z,1.30
2019-06-02T20:19:28.735Z,1.40
2019-06-02T20:21:57.939Z,1.30
2019-06-02T20:24:26.965Z,1.30
2019-06-02T20:27:02.181Z,1.30
2019-06-02T20:29:26.231Z,1.87
2019-06-02T20:31:55.026Z,1.50
2019-06-02T20:34:23.710Z,1.50
2019-06-02T20:36:52.488Z,1.00
2019-06-02T20:39:21.171Z,1.60
2019-06-02T20:41:50.168Z,1.53
2019-06-02T20:44:19.275Z,1.60
2019-06-02T20:46:47.975Z,1.40
2019-06-02T20:49:16.744Z,1.80
2019-06-02T20:51:45.486Z,1.60
2019-06-02T20:54:14.178Z,1.90
2019-06-02T20:56:42.883Z,1.37
2019-06-02T20:59:11.616Z,2.00
2019-06-02T21:01:40.338Z,1.77
2019-06-02T21:04:09.071Z,1.70
2019-06-02T21:06:37.788Z,1.70
2019-06-02T21:09:08.216Z,1.40
2019-06-02T21:11:36.963Z,1.77
2019-06-02T21:14:05.885Z,1.50
2019-06-02T21:16:34.712Z,1.90
2019-06-02T21:19:04.664Z,1.90
2019-06-02T21:21:33.608Z,1.70
2019-06-02T21:24:02.930Z,2.37
2019-06-02T21:26:32.169Z,1.70
2019-06-02T21:29:01.456Z,1.80
2019-06-02T21:31:30.179Z,2.00
2019-06-02T21:33:59.714Z,1.40
2019-06-02T21:36:28.639Z,1.67
2019-06-02T21:38:57.318Z,1.47
2019-06-02T21:41:26.024Z,1.97
2019-06-02T21:43:54.691Z,1.37
2019-06-02T21:46:23.370Z,2.00
2019-06-02T21:48:52.080Z,2.03
2019-06-02T21:51:20.953Z,1.80
2019-06-02T21:53:50.236Z,1.93
2019-06-02T21:56:19.721Z,1.57
2019-06-02T21:58:49.799Z,2.00
2019-06-02T22:01:18.502Z,2.53
2019-06-02T22:03:47.476Z,2.23
2019-06-02T22:06:26.652Z,1.70
2019-06-02T22:08:46.847Z,2.00
2019-06-02T22:11:15.600Z,2.10
2019-06-02T22:13:44.321Z,1.90
2019-06-02T22:16:13.636Z,1.90
2019-06-02T22:18:42.560Z,1.90
2019-06-02T22:21:12.782Z,2.03
2019-06-02T22:23:41.742Z,2.13
2019-06-02T22:26:11.566Z,2.20
2019-06-02T22:28:40.702Z,2.10
2019-06-02T22:31:11.471Z,2.80
2019-06-02T22:33:40.176Z,2.20
2019-06-02T22:36:10.233Z,2.40
2019-06-02T22:38:39.128Z,1.97
2019-06-02T22:41:07.832Z,1.80
2019-06-02T22:43:36.598Z,1.80
2019-06-02T22:46:05.864Z,2.10
2019-06-02T22:48:35.095Z,2.03
2019-06-02T22:51:05.338Z,2.00
2019-06-02T22:53:34.421Z,1.83
2019-06-02T22:56:05.542Z,1.80
2019-06-02T22:58:35.613Z,2.27
2019-06-02T23:01:04.960Z,2.90
2019-06-02T23:03:33.690Z,2.30
2019-06-02T23:06:02.392Z,2.27
2019-06-02T23:08:31.064Z,2.97
2019-06-02T23:10:59.771Z,2.47
2019-06-02T23:13:28.443Z,2.50
2019-06-02T23:15:57.139Z,2.43
2019-06-02T23:18:26.159Z,2.87
2019-06-02T23:20:55.135Z,2.30
2019-06-02T23:23:23.950Z,2.70
2019-06-02T23:25:52.695Z,2.10
2019-06-02T23:28:21.437Z,2.53
2019-06-02T23:30:50.201Z,2.20
2019-06-02T23:33:19.111Z,2.13
2019-06-02T23:35:47.784Z,2.60
2019-06-02T23:38:17.649Z,2.60
2019-06-02T23:40:46.543Z,2.50
2019-06-02T23:43:16.200Z,2.10
2019-06-02T23:45:45.117Z,2.30
2019-06-02T23:48:14.553Z,2.50
2019-06-02T23:50:43.370Z,2.70
2019-06-02T23:53:13.276Z,2.07
2019-06-02T23:55:42.462Z,2.50
2019-06-02T23:58:11.555Z,2.20
